Dades meteomassalio
Diari Summary for Febrer 21, 2017 Units:  Metric    English   Both
« Previous Day
Next Day »
Diari Semanal Mensual Anual Personalitzat
  Maxima: Minima: Mijana:
Temperatura: 15.6 °C 0.5 °C 7.1 °C
Rosada: 7.3 °C -0.5 °C 3.4 °C
Humitat: 94 % 50 % 79 %
Velocitat del vent: 16.7 km/h 0.0 km/h 2.8 km/h
Racha vent: 16.7 km/h - -
Vent:- - West
Pressio: 1029.0 hPa 1023.9 hPa -
Pluja: 0.3 mm    
Historical Graphs
 
 
Tabular Data for Febrer 21, 2017
Time Temperature Dew Point Pressure Wind Wind Speed Wind Gust Humidity Rainfall Rate (Hourly) solar Conditions
00:03 3.5 °C 2.0 °C 1028.3 hPa Calm     90 % 0.0 mm 0.0 W/m2 RA
00:08 3.3 °C 2.0 °C 1028.3 hPa Calm     91 % 0.0 mm 0.0 W/m2 CLR
00:13 3.2 °C 1.9 °C 1028.3 hPa Calm     91 % 0.0 mm 0.0 W/m2 CLR
00:18 3.1 °C 1.8 °C 1028.3 hPa Calm     91 % 0.0 mm 0.0 W/m2 CLR
00:23 2.9 °C 1.6 °C 1028.3 hPa Calm     91 % 0.0 mm 0.0 W/m2 CLR
00:28 2.9 °C 1.6 °C 1028.3 hPa Calm     91 % 0.0 mm 0.0 W/m2 CLR
00:33 3.0 °C 1.8 °C 1028.3 hPa Calm     92 % 0.0 mm 0.0 W/m2 CLR
00:38 2.9 °C 1.6 °C 1028.3 hPa Calm     91 % 0.0 mm 0.0 W/m2 CLR
00:43 2.8 °C 1.4 °C 1028.3 hPa Calm     91 % 0.0 mm 0.0 W/m2 CLR
00:48 2.7 °C 1.6 °C 1028.3 hPa Calm     92 % 0.0 mm 0.0 W/m2 CLR
00:53 2.7 °C 1.6 °C 1028.3 hPa Calm     92 % 0.0 mm 0.0 W/m2 CLR
00:58 2.7 °C 1.6 °C 1028.3 hPa Calm     92 % 0.0 mm 0.0 W/m2 CLR
01:03 2.8 °C 1.6 °C 1028.3 hPa Calm     92 % 0.0 mm 0.0 W/m2 CLR
01:08 2.8 °C 1.6 °C 1028.3 hPa Calm     92 % 0.0 mm 0.0 W/m2 CLR
01:13 2.6 °C 1.3 °C 1028.3 hPa Calm     91 % 0.0 mm 0.0 W/m2 CLR
01:18 2.5 °C 1.3 °C 1028.3 hPa Calm     92 % 0.0 mm 0.0 W/m2 CLR
01:23 2.7 °C 1.7 °C 1028.3 hPa Calm     93 % 0.0 mm 0.0 W/m2 CLR
01:29 2.9 °C 1.7 °C 1028.3 hPa Calm     92 % 0.0 mm 0.0 W/m2 CLR
01:34 3.1 °C 2.1 °C 1028.3 hPa Calm     93 % 0.0 mm 0.0 W/m2 CLR
01:39 3.2 °C 2.1 °C 1028.3 hPa Calm     92 % 0.0 mm 0.0 W/m2 CLR
01:44 3.1 °C 1.9 °C 1028.3 hPa Calm     92 % 0.0 mm 0.0 W/m2 CLR
01:49 3.0 °C 1.8 °C 1028.3 hPa Calm     92 % 0.0 mm 0.0 W/m2 CLR
01:54 3.0 °C 1.8 °C 1028.3 hPa Calm     92 % 0.0 mm 0.0 W/m2 CLR
01:59 2.9 °C 1.7 °C 1028.3 hPa Calm     92 % 0.0 mm 0.0 W/m2 CLR
02:04 2.7 °C 1.6 °C 1028.3 hPa Calm     92 % 0.0 mm 0.0 W/m2 CLR
02:09 2.7 °C 1.5 °C 1028.3 hPa Calm     92 % 0.0 mm 0.0 W/m2 CLR
02:14 2.6 °C 1.4 °C 1028.3 hPa Calm     92 % 0.0 mm 0.0 W/m2 CLR
02:19 2.7 °C 1.7 °C 1028.3 hPa Calm     93 % 0.0 mm 0.0 W/m2 CLR
02:24 2.6 °C 1.4 °C 1028.3 hPa Calm     92 % 0.0 mm 0.0 W/m2 CLR
02:29 2.6 °C 1.4 °C 1028.7 hPa Calm     92 % 0.0 mm 0.0 W/m2 CLR
02:34 2.5 °C 1.3 °C 1028.7 hPa Calm     92 % 0.0 mm 0.0 W/m2 CLR
02:39 2.5 °C 1.3 °C 1028.7 hPa Calm     92 % 0.0 mm 0.0 W/m2 CLR
02:44 2.3 °C 1.2 °C 1028.7 hPa Calm     92 % 0.0 mm 0.0 W/m2 CLR
02:49 2.1 °C 0.9 °C 1028.7 hPa Calm     92 % 0.0 mm 0.0 W/m2 CLR
02:54 1.9 °C 0.8 °C 1028.3 hPa Calm     92 % 0.0 mm 0.0 W/m2 CLR
02:59 1.8 °C 0.6 °C 1028.7 hPa Calm     92 % 0.0 mm 0.0 W/m2 CLR
03:04 1.8 °C 0.6 °C 1028.7 hPa Calm     92 % 0.0 mm 0.0 W/m2 CLR
03:09 1.8 °C 0.6 °C 1028.3 hPa Calm     92 % 0.0 mm 0.0 W/m2 CLR
03:14 1.7 °C 0.6 °C 1028.3 hPa Calm     92 % 0.0 mm 0.0 W/m2 CLR
03:19 1.7 °C 0.7 °C 1028.3 hPa Calm     93 % 0.0 mm 0.0 W/m2 CLR
03:24 1.6 °C 0.4 °C 1028.3 hPa Calm     92 % 0.0 mm 0.0 W/m2 CLR
03:29 1.5 °C 0.3 °C 1028.3 hPa Calm     92 % 0.0 mm 0.0 W/m2 CLR
03:34 1.6 °C 0.6 °C 1028.3 hPa Calm     93 % 0.0 mm 0.0 W/m2 CLR
03:39 1.6 °C 0.6 °C 1028.3 hPa Calm     93 % 0.0 mm 0.0 W/m2 CLR
03:44 1.4 °C 0.3 °C 1028.3 hPa Calm     92 % 0.0 mm 0.0 W/m2 CLR
03:49 1.3 °C 0.3 °C 1028.3 hPa Calm     93 % 0.0 mm 0.0 W/m2 CLR
03:54 1.2 °C 0.2 °C 1028.0 hPa Calm     93 % 0.0 mm 0.0 W/m2 CLR
03:59 1.2 °C 0.2 °C 1028.3 hPa Calm     93 % 0.0 mm 0.0 W/m2 CLR
04:04 1.1 °C 0.1 °C 1028.3 hPa Calm     93 % 0.0 mm 0.0 W/m2 CLR
04:09 1.2 °C 0.2 °C 1028.3 hPa Calm     93 % 0.0 mm 0.0 W/m2 CLR
04:14 1.2 °C 0.2 °C 1028.3 hPa Calm     93 % 0.0 mm 0.0 W/m2 CLR
04:19 1.2 °C 0.2 °C 1028.3 hPa Calm     93 % 0.0 mm 0.0 W/m2 CLR
04:24 1.1 °C 0.1 °C 1028.3 hPa Calm     93 % 0.0 mm 0.0 W/m2 CLR
04:29 1.1 °C 0.1 °C 1028.3 hPa Calm     93 % 0.0 mm 0.0 W/m2 CLR
04:34 0.9 °C -0.1 °C 1028.3 hPa Calm     93 % 0.0 mm 0.0 W/m2 CLR
04:39 1.2 °C 0.2 °C 1028.3 hPa Calm     93 % 0.0 mm 0.0 W/m2 CLR
04:44 1.5 °C 0.5 °C 1028.3 hPa Calm     93 % 0.0 mm 0.0 W/m2 CLR
04:49 1.4 °C 0.4 °C 1028.3 hPa Calm     93 % 0.0 mm 0.0 W/m2 CLR
04:54 1.4 °C 0.4 °C 1028.3 hPa Calm     93 % 0.0 mm 0.0 W/m2 CLR
04:59 1.3 °C 0.3 °C 1028.3 hPa Calm     93 % 0.0 mm 0.0 W/m2 CLR
05:04 1.3 °C 0.3 °C 1028.0 hPa Calm     93 % 0.0 mm 0.0 W/m2 CLR
05:09 1.3 °C 0.3 °C 1028.0 hPa Calm     93 % 0.0 mm 0.0 W/m2 CLR
05:14 1.4 °C 0.4 °C 1028.3 hPa Calm     93 % 0.0 mm 0.0 W/m2 CLR
05:19 1.5 °C 0.7 °C 1028.0 hPa Calm     94 % 0.0 mm 0.0 W/m2 CLR
05:24 1.4 °C 0.4 °C 1028.0 hPa Calm     93 % 0.0 mm 0.0 W/m2 CLR
05:29 1.3 °C 0.3 °C 1028.0 hPa Calm     93 % 0.0 mm 0.0 W/m2 CLR
05:34 1.2 °C 0.2 °C 1028.0 hPa Calm     93 % 0.0 mm 0.0 W/m2 CLR
05:39 1.1 °C 0.1 °C 1028.3 hPa Calm     93 % 0.0 mm 0.0 W/m2 CLR
05:44 1.1 °C 0.1 °C 1028.3 hPa Calm     93 % 0.0 mm 0.0 W/m2 CLR
05:49 1.2 °C 0.2 °C 1028.3 hPa Calm     93 % 0.0 mm 0.0 W/m2 CLR
05:54 1.2 °C 0.2 °C 1028.3 hPa Calm     93 % 0.0 mm 0.0 W/m2 CLR
05:59 1.1 °C 0.1 °C 1028.3 hPa Calm     93 % 0.0 mm 0.0 W/m2 CLR
06:05 1.1 °C 0.1 °C 1028.3 hPa Calm     93 % 0.0 mm 0.0 W/m2 CLR
06:10 1.0 °C 0.0 °C 1028.3 hPa Calm     93 % 0.0 mm 0.0 W/m2 CLR
06:15 1.1 °C 0.1 °C 1028.3 hPa Calm     93 % 0.0 mm 0.0 W/m2 CLR
06:20 1.1 °C 0.1 °C 1028.3 hPa Calm     93 % 0.0 mm 0.0 W/m2 CLR
06:25 1.1 °C 0.1 °C 1028.3 hPa Calm     93 % 0.0 mm 0.0 W/m2 CLR
06:30 1.0 °C 0.0 °C 1028.3 hPa Calm     93 % 0.0 mm 0.0 W/m2 CLR
06:35 0.8 °C -0.2 °C 1028.3 hPa Calm     93 % 0.0 mm 0.0 W/m2 CLR
06:40 0.8 °C -0.2 °C 1028.3 hPa Calm     93 % 0.0 mm 0.0 W/m2 CLR
06:45 0.9 °C -0.1 °C 1028.3 hPa Calm     93 % 0.0 mm 0.0 W/m2 CLR
06:50 1.0 °C 0.2 °C 1028.3 hPa Calm     94 % 0.0 mm 0.0 W/m2 CLR
06:55 1.1 °C 0.2 °C 1028.3 hPa Calm     94 % 0.0 mm 0.0 W/m2 CLR
07:00 0.9 °C -0.1 °C 1028.3 hPa Calm     93 % 0.0 mm 0.0 W/m2 CLR
07:05 0.7 °C -0.3 °C 1028.3 hPa Calm     93 % 0.0 mm 0.0 W/m2 CLR
07:10 0.7 °C -0.3 °C 1028.3 hPa Calm     93 % 0.0 mm 0.0 W/m2 CLR
07:15 0.8 °C 0.0 °C 1028.3 hPa Calm     94 % 0.0 mm 0.0 W/m2 CLR
07:20 0.9 °C 0.1 °C 1028.3 hPa Calm     94 % 0.0 mm 0.0 W/m2 CLR
07:25 0.9 °C 0.1 °C 1028.7 hPa Calm     94 % 0.0 mm 0.0 W/m2 CLR
07:30 0.9 °C -0.1 °C 1028.3 hPa Calm     93 % 0.0 mm 0.0 W/m2 CLR
07:35 0.8 °C -0.2 °C 1028.7 hPa Calm     93 % 0.0 mm 0.0 W/m2 CLR
07:40 0.7 °C -0.3 °C 1028.7 hPa Calm     93 % 0.0 mm 0.0 W/m2 OVC
07:45 0.7 °C -0.3 °C 1028.7 hPa Calm     93 % 0.0 mm 5.0 W/m2 OVC
07:50 0.6 °C -0.4 °C 1028.7 hPa Calm     93 % 0.0 mm 7.0 W/m2 BKN
07:55 0.6 °C -0.2 °C 1028.7 hPa Calm     94 % 0.0 mm 9.0 W/m2 BKN
08:00 0.5 °C -0.5 °C 1028.7 hPa Calm     93 % 0.0 mm 12.0 W/m2 BKN
08:05 0.6 °C -0.4 °C 1028.7 hPa Calm     93 % 0.0 mm 16.0 W/m2 BKN
08:10 0.7 °C -0.2 °C 1029.0 hPa Calm     94 % 0.0 mm 21.0 W/m2 BKN
08:15 0.8 °C 0.0 °C 1029.0 hPa Calm     94 % 0.0 mm 28.0 W/m2 BKN
08:20 1.1 °C 0.3 °C 1029.0 hPa Calm     94 % 0.0 mm 37.0 W/m2 BKN
08:25 1.2 °C 0.4 °C 1029.0 hPa Calm     94 % 0.0 mm 46.0 W/m2 BKN
08:30 1.3 °C 0.5 °C 1029.0 hPa Calm     94 % 0.0 mm 62.0 W/m2 SCT
08:35 1.5 °C 0.7 °C 1029.0 hPa Calm     94 % 0.0 mm 76.0 W/m2 FEW
08:40 1.6 °C 0.7 °C 1029.0 hPa Calm     94 % 0.0 mm 88.0 W/m2 CLR
08:45 1.9 °C 1.0 °C 1029.0 hPa Calm     94 % 0.3 mm 104.0 W/m2 RA
08:50 2.1 °C 1.2 °C 1029.0 hPa Calm     94 % 0.3 mm 111.0 W/m2 CLR
08:55 2.3 °C 1.4 °C 1029.0 hPa Calm     94 % 0.3 mm 135.0 W/m2 CLR
09:00 2.6 °C 1.7 °C 1029.0 hPa Calm     94 % 0.3 mm 151.0 W/m2 CLR
09:05 3.0 °C 2.1 °C 1028.7 hPa Calm     94 % 0.3 mm 146.0 W/m2 CLR
09:10 3.4 °C 2.5 °C 1028.7 hPa Calm     94 % 0.3 mm 132.0 W/m2 CLR
09:15 3.6 °C 2.6 °C 1028.7 hPa Calm     93 % 0.3 mm 116.0 W/m2 CLR
09:20 3.8 °C 2.7 °C 1028.7 hPa Calm     93 % 0.3 mm 221.0 W/m2 CLR
09:25 4.2 °C 3.2 °C 1029.0 hPa Calm     93 % 0.3 mm 239.0 W/m2 CLR
09:30 4.7 °C 3.7 °C 1028.7 hPa Calm     93 % 0.3 mm 257.0 W/m2 CLR
09:35 5.1 °C 4.1 °C 1028.7 hPa Calm     93 % 0.3 mm 271.0 W/m2 CLR
09:40 5.6 °C 4.4 °C 1028.7 hPa Calm     92 % 0.3 mm 285.0 W/m2 CLR
09:45 6.1 °C 4.8 °C 1028.7 hPa Calm     92 % 0.0 mm 297.0 W/m2 CLR
09:50 6.5 °C 5.0 °C 1028.7 hPa Calm     90 % 0.0 mm 311.0 W/m2 CLR
09:55 6.9 °C 5.4 °C 1028.7 hPa Calm     90 % 0.0 mm 325.0 W/m2 CLR
10:00 7.2 °C 5.3 °C 1028.7 hPa Calm     88 % 0.0 mm 338.0 W/m2 CLR
10:05 7.4 °C 5.4 °C 1028.7 hPa Calm     87 % 0.0 mm 350.0 W/m2 CLR
10:10 7.8 °C 5.6 °C 1028.3 hPa Calm     86 % 0.0 mm 366.0 W/m2 CLR
10:15 8.2 °C 6.0 °C 1028.3 hPa Calm     86 % 0.0 mm 376.0 W/m2 CLR
10:20 8.6 °C 6.1 °C 1028.3 hPa Calm     84 % 0.0 mm 383.0 W/m2 CLR
10:25 8.9 °C 6.0 °C 1028.3 hPa Calm     82 % 0.0 mm 397.0 W/m2 CLR
10:30 9.3 °C 6.0 °C 1028.3 hPa West 7.4 km/h 7.4 km/h 80 % 0.0 mm 415.0 W/m2 CLR
10:35 9.8 °C 6.1 °C 1028.3 hPa NW 14.8 km/h 14.8 km/h 78 % 0.0 mm 425.0 W/m2 CLR
10:41 9.9 °C 5.7 °C 1028.0 hPa West 14.8 km/h 14.8 km/h 75 % 0.0 mm 438.0 W/m2 CLR
10:46 10.2 °C 6.1 °C 1028.0 hPa WNW 11.1 km/h 11.7 km/h 76 % 0.0 mm 450.0 W/m2 CLR
10:51 10.2 °C 6.0 °C 1028.0 hPa WNW 9.3 km/h 9.3 km/h 75 % 0.0 mm 462.0 W/m2 CLR
10:56 10.4 °C 6.2 °C 1028.0 hPa WNW 13.0 km/h 13.0 km/h 75 % 0.0 mm 473.0 W/m2 CLR
11:01 10.6 °C 5.9 °C 1028.0 hPa WNW 9.3 km/h 9.3 km/h 73 % 0.0 mm 483.0 W/m2 CLR
11:06 10.8 °C 5.9 °C 1028.0 hPa NW 7.4 km/h 7.4 km/h 72 % 0.0 mm 494.0 W/m2 CLR
11:11 10.8 °C 5.6 °C 1028.0 hPa WNW 11.1 km/h 11.1 km/h 70 % 0.0 mm 506.0 W/m2 CLR
11:16 11.0 °C 6.2 °C 1027.7 hPa WNW 11.3 km/h 11.3 km/h 72 % 0.0 mm 513.0 W/m2 CLR
11:21 11.1 °C 5.8 °C 1027.7 hPa WSW 12.9 km/h 12.9 km/h 70 % 0.0 mm 522.0 W/m2 CLR
11:26 11.2 °C 5.7 °C 1027.7 hPa NW 11.1 km/h 11.1 km/h 69 % 0.0 mm 534.0 W/m2 CLR
11:31 11.4 °C 6.2 °C 1027.7 hPa West 11.1 km/h 11.1 km/h 70 % 0.0 mm 540.0 W/m2 CLR
11:36 11.7 °C 6.4 °C 1027.7 hPa NW 13.0 km/h 13.0 km/h 70 % 0.0 mm 550.0 W/m2 CLR
11:41 11.8 °C 5.8 °C 1027.7 hPa West 9.3 km/h 9.3 km/h 67 % 0.0 mm 555.0 W/m2 CLR
11:46 11.8 °C 5.8 °C 1027.7 hPa NW 14.8 km/h 14.8 km/h 67 % 0.0 mm 563.0 W/m2 CLR
11:51 11.8 °C 6.1 °C 1027.7 hPa WNW 11.1 km/h 11.1 km/h 68 % 0.0 mm 571.0 W/m2 CLR
11:56 11.9 °C 6.2 °C 1027.7 hPa NW 13.0 km/h 13.0 km/h 68 % 0.0 mm 578.0 W/m2 CLR
12:01 12.0 °C 6.1 °C 1027.7 hPa WNW 14.8 km/h 14.8 km/h 67 % 0.0 mm 584.0 W/m2 CLR
12:06 12.1 °C 5.9 °C 1027.7 hPa NNW 11.1 km/h 11.1 km/h 66 % 0.0 mm 589.0 W/m2 CLR
12:11 12.3 °C 6.6 °C 1027.7 hPa NW 16.7 km/h 16.7 km/h 68 % 0.0 mm 594.0 W/m2 CLR
12:16 12.4 °C 6.0 °C 1027.3 hPa NW 14.5 km/h 14.5 km/h 65 % 0.0 mm 603.0 W/m2 CLR
12:21 12.4 °C 6.3 °C 1027.3 hPa NW 16.7 km/h 16.7 km/h 66 % 0.0 mm 603.0 W/m2 CLR
12:26 12.4 °C 6.1 °C 1027.3 hPa NNW 7.4 km/h 7.4 km/h 65 % 0.0 mm 612.0 W/m2 CLR
12:31 12.5 °C 6.1 °C 1027.3 hPa WNW 14.8 km/h 14.8 km/h 65 % 0.0 mm 615.0 W/m2 CLR
12:36 12.6 °C 6.4 °C 1027.3 hPa NW 13.0 km/h 13.0 km/h 66 % 0.0 mm 617.0 W/m2 CLR
12:41 12.7 °C 5.8 °C 1027.3 hPa NNW 13.0 km/h 13.0 km/h 63 % 0.0 mm 621.0 W/m2 CLR
12:46 12.8 °C 5.7 °C 1027.0 hPa NW 9.3 km/h 9.3 km/h 62 % 0.0 mm 622.0 W/m2 CLR
12:51 12.9 °C 6.2 °C 1027.0 hPa NNW 1.6 km/h 1.6 km/h 64 % 0.0 mm 628.0 W/m2 CLR
12:56 13.0 °C 5.9 °C 1027.0 hPa WNW 9.3 km/h 9.3 km/h 62 % 0.0 mm 628.0 W/m2 CLR
13:01 13.2 °C 6.3 °C 1027.0 hPa NNW 3.7 km/h   63 % 0.0 mm 629.0 W/m2 CLR
13:06 13.2 °C 6.1 °C 1027.0 hPa WNW 14.8 km/h 14.8 km/h 62 % 0.0 mm 631.0 W/m2 CLR
13:11 13.3 °C 6.2 °C 1026.6 hPa West 9.7 km/h 9.7 km/h 62 % 0.0 mm 631.0 W/m2 CLR
13:16 13.3 °C 6.4 °C 1026.6 hPa Calm     63 % 0.0 mm 633.0 W/m2 CLR
13:21 13.6 °C 6.7 °C 1026.6 hPa NNW 7.4 km/h 7.4 km/h 63 % 0.0 mm 628.0 W/m2 CLR
13:26 13.6 °C 6.4 °C 1026.6 hPa NNW 13.0 km/h 13.0 km/h 62 % 0.0 mm 628.0 W/m2 CLR
13:31 13.8 °C 6.8 °C 1026.3 hPa North 13.0 km/h 13.0 km/h 63 % 0.0 mm 628.0 W/m2 CLR
13:36 13.8 °C 6.8 °C 1026.3 hPa North 11.1 km/h 11.1 km/h 63 % 0.0 mm 629.0 W/m2 CLR
13:41 13.8 °C 6.8 °C 1026.3 hPa NNW 12.9 km/h 12.9 km/h 63 % 0.0 mm 624.0 W/m2 CLR
13:46 13.7 °C 6.7 °C 1026.3 hPa North 9.3 km/h 9.3 km/h 63 % 0.0 mm 624.0 W/m2 CLR
13:51 13.7 °C 7.1 °C 1026.0 hPa NNE 9.7 km/h 9.7 km/h 64 % 0.0 mm 617.0 W/m2 CLR
13:56 13.8 °C 7.3 °C 1026.0 hPa North 5.6 km/h 5.6 km/h 65 % 0.0 mm 606.0 W/m2 CLR
14:01 13.9 °C 7.2 °C 1026.0 hPa NNW 9.3 km/h 9.3 km/h 64 % 0.0 mm 615.0 W/m2 CLR
14:06 13.9 °C 6.8 °C 1026.0 hPa NW 8.0 km/h 8.0 km/h 62 % 0.0 mm 612.0 W/m2 CLR
14:11 13.9 °C 7.0 °C 1025.6 hPa NNW 7.4 km/h 7.4 km/h 63 % 0.0 mm 608.0 W/m2 CLR
14:16 13.9 °C 7.2 °C 1025.6 hPa North 1.9 km/h   64 % 0.0 mm 605.0 W/m2 CLR
14:21 14.1 °C 7.2 °C 1025.3 hPa North 9.7 km/h 9.7 km/h 63 % 0.0 mm 599.0 W/m2 CLR
14:26 14.3 °C 7.3 °C 1025.3 hPa NNW 7.4 km/h 7.4 km/h 63 % 0.0 mm 594.0 W/m2 CLR
14:31 14.3 °C 7.1 °C 1025.3 hPa NW 9.3 km/h 9.3 km/h 62 % 0.0 mm 589.0 W/m2 CLR
14:36 14.5 °C 7.3 °C 1025.3 hPa West 7.4 km/h 7.4 km/h 62 % 0.0 mm 582.0 W/m2 CLR
14:41 14.8 °C 7.1 °C 1025.3 hPa NW 14.5 km/h 14.5 km/h 60 % 0.0 mm 575.0 W/m2 CLR
14:46 14.7 °C 6.6 °C 1024.9 hPa NW 11.3 km/h 11.3 km/h 58 % 0.0 mm 568.0 W/m2 CLR
14:51 14.7 °C 6.3 °C 1024.9 hPa West 11.1 km/h 11.1 km/h 57 % 0.0 mm 561.0 W/m2 CLR
14:56 14.8 °C 6.7 °C 1024.9 hPa Calm     58 % 0.0 mm 555.0 W/m2 CLR
15:01 14.9 °C 6.0 °C 1024.9 hPa NNW 9.3 km/h 9.3 km/h 55 % 0.0 mm 545.0 W/m2 CLR
15:06 14.9 °C 5.9 °C 1024.9 hPa NNW 11.1 km/h 11.1 km/h 55 % 0.0 mm 540.0 W/m2 CLR
15:11 15.0 °C 5.8 °C 1024.9 hPa WNW 5.6 km/h   54 % 0.0 mm 527.0 W/m2 CLR
15:17 15.0 °C 6.0 °C 1024.6 hPa North 11.1 km/h 11.1 km/h 55 % 0.0 mm 519.0 W/m2 CLR
15:22 14.9 °C 5.7 °C 1024.6 hPa North 13.0 km/h 13.0 km/h 54 % 0.0 mm 510.0 W/m2 CLR
15:27 14.8 °C 5.8 °C 1024.6 hPa Calm     55 % 0.0 mm 497.0 W/m2 CLR
15:32 15.0 °C 6.0 °C 1024.6 hPa NNE 7.4 km/h 7.4 km/h 55 % 0.0 mm 489.0 W/m2 CLR
15:36 15.2 °C 5.9 °C 1024.6 hPa Calm     54 % 0.0 mm 478.0 W/m2 CLR
15:42 15.3 °C 5.8 °C 1024.6 hPa NNW 5.6 km/h 5.6 km/h 53 % 0.0 mm 468.0 W/m2 CLR
15:47 15.4 °C 5.9 °C 1024.3 hPa NW 1.9 km/h   53 % 0.0 mm 455.0 W/m2 CLR
15:52 15.6 °C 5.8 °C 1024.3 hPa North 5.6 km/h 5.6 km/h 52 % 0.0 mm 443.0 W/m2 CLR
15:57 15.6 °C 6.0 °C 1024.3 hPa North 14.8 km/h 14.8 km/h 53 % 0.0 mm 432.0 W/m2 CLR
16:02 15.4 °C 5.3 °C 1024.3 hPa North 9.3 km/h 9.3 km/h 51 % 0.0 mm 418.0 W/m2 CLR
16:07 15.3 °C 5.5 °C 1024.3 hPa Calm     52 % 0.0 mm 406.0 W/m2 CLR
16:12 15.4 °C 5.1 °C 1024.3 hPa NNW 14.5 km/h 14.5 km/h 50 % 0.0 mm 394.0 W/m2 CLR
16:17 15.3 °C 4.9 °C 1024.3 hPa North 8.0 km/h 8.0 km/h 50 % 0.0 mm 380.0 W/m2 CLR
16:22 15.4 °C 5.6 °C 1024.3 hPa NNE 9.7 km/h 9.7 km/h 52 % 0.0 mm 366.0 W/m2 CLR
16:27 15.4 °C 5.3 °C 1024.3 hPa North 7.4 km/h 7.4 km/h 51 % 0.0 mm 353.0 W/m2 CLR
16:32 15.4 °C 5.3 °C 1024.3 hPa NNW 7.4 km/h 7.4 km/h 51 % 0.0 mm 341.0 W/m2 CLR
16:37 15.4 °C 5.6 °C 1024.3 hPa NNE 5.6 km/h 5.6 km/h 52 % 0.0 mm 325.0 W/m2 CLR
16:42 15.3 °C 5.5 °C 1024.3 hPa NNW 9.3 km/h 9.3 km/h 52 % 0.0 mm 311.0 W/m2 CLR
16:47 15.3 °C 6.0 °C 1023.9 hPa North 11.1 km/h 11.1 km/h 54 % 0.0 mm 297.0 W/m2 CLR
16:52 15.3 °C 5.7 °C 1023.9 hPa NNE 1.9 km/h   53 % 0.0 mm 285.0 W/m2 CLR
16:57 15.3 °C 5.8 °C 1023.9 hPa NNW 5.6 km/h 5.6 km/h 53 % 0.0 mm 265.0 W/m2 CLR
17:02 15.3 °C 5.2 °C 1023.9 hPa Calm     51 % 0.0 mm 251.0 W/m2 CLR
17:07 15.2 °C 5.7 °C 1023.9 hPa North 5.6 km/h 5.6 km/h 53 % 0.0 mm 234.0 W/m2 CLR
17:12 15.2 °C 5.9 °C 1023.9 hPa NNW 7.4 km/h 7.4 km/h 54 % 0.0 mm 216.0 W/m2 CLR
17:17 15.1 °C 5.3 °C 1023.9 hPa NNE 9.3 km/h 9.3 km/h 52 % 0.0 mm 195.0 W/m2 CLR
17:22 14.9 °C 5.4 °C 1023.9 hPa North 8.0 km/h 8.0 km/h 53 % 0.0 mm 178.0 W/m2 CLR
17:27 14.7 °C 5.2 °C 1023.9 hPa NNE 7.4 km/h 7.4 km/h 53 % 0.0 mm 162.0 W/m2 CLR
17:32 14.6 °C 4.8 °C 1023.9 hPa North 5.6 km/h 5.6 km/h 52 % 0.0 mm 144.0 W/m2 CLR
17:37 14.6 °C 4.8 °C 1023.9 hPa North 6.4 km/h 6.4 km/h 52 % 0.0 mm 128.0 W/m2 CLR
17:42 14.4 °C 5.2 °C 1023.9 hPa Calm     54 % 0.0 mm 109.0 W/m2 CLR
17:47 14.5 °C 5.0 °C 1023.9 hPa North 1.9 km/h 1.9 km/h 53 % 0.0 mm 93.0 W/m2 CLR
17:52 14.4 °C 4.7 °C 1023.9 hPa Calm     52 % 0.0 mm 79.0 W/m2 FEW
17:57 14.4 °C 5.2 °C 1023.9 hPa Calm     54 % 0.0 mm 58.0 W/m2 SCT
18:02 14.4 °C 5.5 °C 1023.9 hPa Calm     55 % 0.0 mm 51.0 W/m2 SCT
18:07 14.3 °C 5.4 °C 1023.9 hPa Calm     55 % 0.0 mm 40.0 W/m2 BKN
18:12 14.2 °C 5.3 °C 1024.3 hPa Calm     55 % 0.0 mm 28.0 W/m2 BKN
18:17 14.1 °C 5.4 °C 1024.3 hPa Calm     56 % 0.0 mm 19.0 W/m2 BKN
18:22 13.9 °C 5.5 °C 1024.3 hPa Calm     57 % 0.0 mm 14.0 W/m2 BKN
18:27 13.5 °C 5.2 °C 1024.3 hPa Calm     57 % 0.0 mm 12.0 W/m2 BKN
18:32 13.2 °C 5.3 °C 1024.3 hPa Calm     59 % 0.0 mm 9.0 W/m2 BKN
18:37 12.8 °C 5.3 °C 1024.3 hPa Calm     60 % 0.0 mm 7.0 W/m2 BKN
18:42 12.6 °C 5.2 °C 1024.3 hPa Calm     61 % 0.0 mm 0.0 W/m2 OVC
18:47 12.3 °C 5.3 °C 1024.3 hPa Calm     62 % 0.0 mm 0.0 W/m2 OVC
18:52 12.0 °C 5.2 °C 1024.3 hPa Calm     63 % 0.0 mm 0.0 W/m2 CLR
18:57 11.7 °C 5.3 °C 1024.3 hPa Calm     65 % 0.0 mm 0.0 W/m2 CLR
19:02 11.4 °C 5.1 °C 1024.3 hPa Calm     65 % 0.0 mm 0.0 W/m2 CLR
19:07 11.2 °C 5.3 °C 1024.6 hPa Calm     67 % 0.0 mm 0.0 W/m2 CLR
19:12 10.8 °C 5.2 °C 1024.3 hPa Calm     68 % 0.0 mm 0.0 W/m2 CLR
19:17 10.6 °C 5.2 °C 1024.6 hPa Calm     69 % 0.0 mm 0.0 W/m2 CLR
19:22 10.2 °C 5.2 °C 1024.6 hPa Calm     71 % 0.0 mm 0.0 W/m2 CLR
19:27 9.8 °C 5.0 °C 1024.6 hPa Calm     72 % 0.0 mm 0.0 W/m2 CLR
19:32 9.5 °C 4.9 °C 1024.6 hPa Calm     73 % 0.0 mm 0.0 W/m2 CLR
19:37 9.2 °C 4.8 °C 1024.6 hPa Calm     74 % 0.0 mm 0.0 W/m2 CLR
19:42 8.9 °C 4.9 °C 1024.9 hPa Calm     76 % 0.0 mm 0.0 W/m2 CLR
19:47 8.6 °C 4.8 °C 1024.9 hPa SW 5.6 km/h 5.6 km/h 77 % 0.0 mm 0.0 W/m2 CLR
19:52 8.3 °C 4.6 °C 1024.9 hPa Calm     77 % 0.0 mm 0.0 W/m2 CLR
19:57 8.1 °C 4.5 °C 1024.9 hPa Calm     78 % 0.0 mm 0.0 W/m2 CLR
20:02 7.9 °C 4.5 °C 1024.9 hPa SW 1.9 km/h 1.9 km/h 79 % 0.0 mm 0.0 W/m2 CLR
20:07 7.8 °C 4.4 °C 1024.9 hPa Calm     79 % 0.0 mm 0.0 W/m2 CLR
20:12 7.6 °C 4.4 °C 1024.9 hPa Calm     80 % 0.0 mm 0.0 W/m2 CLR
20:17 7.5 °C 4.3 °C 1024.9 hPa Calm     80 % 0.0 mm 0.0 W/m2 CLR
20:22 7.4 °C 4.3 °C 1024.9 hPa Calm   0.2 km/h 81 % 0.0 mm 0.0 W/m2 CLR
20:27 7.2 °C 4.2 °C 1024.9 hPa SW 5.6 km/h 5.6 km/h 81 % 0.0 mm 0.0 W/m2 CLR
20:32 7.0 °C 4.1 °C 1024.9 hPa SW 5.6 km/h 5.6 km/h 82 % 0.0 mm 0.0 W/m2 CLR
20:37 6.9 °C 4.0 °C 1025.3 hPa Calm     82 % 0.0 mm 0.0 W/m2 CLR
20:42 6.8 °C 3.9 °C 1025.3 hPa Calm     82 % 0.0 mm 0.0 W/m2 CLR
20:47 6.7 °C 4.0 °C 1025.3 hPa Calm   0.2 km/h 83 % 0.0 mm 0.0 W/m2 CLR
20:52 6.5 °C 3.8 °C 1025.3 hPa Calm     83 % 0.0 mm 0.0 W/m2 CLR
20:57 6.4 °C 3.9 °C 1025.3 hPa Calm     84 % 0.0 mm 0.0 W/m2 CLR
21:02 6.3 °C 3.8 °C 1025.3 hPa Calm     84 % 0.0 mm 0.0 W/m2 CLR
21:07 6.2 °C 3.7 °C 1025.3 hPa Calm     84 % 0.0 mm 0.0 W/m2 CLR
21:12 6.1 °C 3.6 °C 1025.3 hPa Calm     84 % 0.0 mm 0.0 W/m2 CLR
21:13 6.1 °C 3.6 °C 1025.3 hPa Calm     84 % 0.0 mm 0.0 W/m2 CLR
21:18 5.9 °C 3.6 °C 1025.3 hPa Calm     85 % 0.0 mm 0.0 W/m2 CLR
21:23 5.8 °C 3.5 °C 1025.3 hPa Calm     85 % 0.0 mm 0.0 W/m2 CLR
21:28 5.7 °C 3.4 °C 1025.3 hPa Calm     85 % 0.0 mm 0.0 W/m2 CLR
21:33 5.6 °C 3.4 °C 1025.3 hPa Calm     86 % 0.0 mm 0.0 W/m2 CLR
21:38 5.5 °C 3.3 °C 1025.3 hPa Calm     86 % 0.0 mm 0.0 W/m2 CLR
21:43 5.5 °C 3.3 °C 1025.3 hPa Calm     86 % 0.0 mm 0.0 W/m2 CLR
21:48 5.6 °C 3.4 °C 1025.3 hPa Calm     86 % 0.0 mm 0.0 W/m2 CLR
21:53 5.5 °C 3.3 °C 1025.6 hPa Calm     86 % 0.0 mm 0.0 W/m2 CLR
21:58 5.4 °C 3.3 °C 1025.6 hPa Calm     86 % 0.0 mm 0.0 W/m2 CLR
22:03 5.3 °C 2.9 °C 1025.6 hPa Calm     85 % 0.0 mm 0.0 W/m2 CLR
22:08 5.2 °C 3.0 °C 1025.6 hPa WSW 3.7 km/h 3.7 km/h 86 % 0.0 mm 0.0 W/m2 CLR
22:13 5.2 °C 3.2 °C 1025.6 hPa SW 3.7 km/h   87 % 0.0 mm 0.0 W/m2 CLR
22:18 5.2 °C 3.1 °C 1025.6 hPa Calm     86 % 0.0 mm 0.0 W/m2 CLR
22:23 5.0 °C 2.8 °C 1025.6 hPa Calm     86 % 0.0 mm 0.0 W/m2 CLR
22:28 4.8 °C 2.6 °C 1026.0 hPa Calm     86 % 0.0 mm 0.0 W/m2 CLR
22:33 4.6 °C 2.6 °C 1026.0 hPa Calm     87 % 0.0 mm 0.0 W/m2 CLR
22:38 4.5 °C 2.7 °C 1026.0 hPa Calm     88 % 0.0 mm 0.0 W/m2 CLR
22:43 4.5 °C 2.7 °C 1026.0 hPa Calm     88 % 0.0 mm 0.0 W/m2 CLR
22:48 4.3 °C 2.3 °C 1026.0 hPa Calm     87 % 0.0 mm 0.0 W/m2 CLR
22:53 4.2 °C 2.3 °C 1026.0 hPa Calm     88 % 0.0 mm 0.0 W/m2 CLR
22:58 4.1 °C 2.3 °C 1026.0 hPa SW 1.9 km/h   88 % 0.0 mm 0.0 W/m2 CLR
23:03 4.1 °C 2.3 °C 1026.0 hPa Calm     88 % 0.0 mm 0.0 W/m2 CLR
23:08 4.0 °C 2.3 °C 1026.0 hPa Calm     89 % 0.0 mm 0.0 W/m2 CLR
23:13 4.0 °C 2.3 °C 1026.0 hPa SW 3.7 km/h   89 % 0.0 mm 0.0 W/m2 CLR
23:18 4.0 °C 2.3 °C 1026.0 hPa Calm     89 % 0.0 mm 0.0 W/m2 CLR
23:23 3.8 °C 2.2 °C 1026.0 hPa Calm     89 % 0.0 mm 0.0 W/m2 CLR
23:29 3.8 °C 2.1 °C 1026.0 hPa Calm     89 % 0.0 mm 0.0 W/m2 CLR
23:34 3.7 °C 2.1 °C 1026.0 hPa Calm     89 % 0.0 mm 0.0 W/m2 CLR
23:39 3.7 °C 2.0 °C 1026.0 hPa Calm     89 % 0.0 mm 0.0 W/m2 CLR
23:44 3.6 °C 1.9 °C 1026.0 hPa Calm     89 % 0.0 mm 0.0 W/m2 CLR
23:49 3.5 °C 1.8 °C 1026.0 hPa Calm     89 % 0.0 mm 0.0 W/m2 CLR
23:54 3.4 °C 1.9 °C 1026.0 hPa Calm     90 % 0.0 mm 0.0 W/m2 CLR
23:59 3.3 °C 1.8 °C 1026.0 hPa Calm     90 % 0.0 mm 0.0 W/m2 CLR
Lo Temps de Massalio
Compliments of Weather Underground - 1.25 mb